sensor_id;sensor_type;location;lat;lon;timestamp;P1;durP1;ratioP1;P2;durP2;ratioP2
29838;SDS011;18669;53.356;-1.464;2022-10-17T00:02:33;6.13;;;3.97;;
29838;SDS011;18669;53.356;-1.464;2022-10-17T00:04:59;5.57;;;4.40;;
29838;SDS011;18669;53.356;-1.464;2022-10-17T00:07:26;6.47;;;4.50;;
29838;SDS011;18669;53.356;-1.464;2022-10-17T00:09:52;9.68;;;4.65;;
29838;SDS011;18669;53.356;-1.464;2022-10-17T00:12:37;5.28;;;4.53;;
29838;SDS011;18669;53.356;-1.464;2022-10-17T00:15:04;10.85;;;5.50;;
29838;SDS011;18669;53.356;-1.464;2022-10-17T00:17:33;6.50;;;5.13;;
29838;SDS011;18669;53.356;-1.464;2022-10-17T00:19:59;5.78;;;4.53;;
29838;SDS011;18669;53.356;-1.464;2022-10-17T00:22:26;9.40;;;5.20;;
29838;SDS011;18669;53.356;-1.464;2022-10-17T00:24:52;8.88;;;4.72;;
29838;SDS011;18669;53.356;-1.464;2022-10-17T00:29:47;7.97;;;4.38;;
29838;SDS011;18669;53.356;-1.464;2022-10-17T00:32:17;6.95;;;4.57;;
29838;SDS011;18669;53.356;-1.464;2022-10-17T00:34:43;8.30;;;4.75;;
29838;SDS011;18669;53.356;-1.464;2022-10-17T00:37:10;8.65;;;4.78;;
29838;SDS011;18669;53.356;-1.464;2022-10-17T00:39:37;6.10;;;4.05;;
29838;SDS011;18669;53.356;-1.464;2022-10-17T00:42:03;5.22;;;4.38;;
29838;SDS011;18669;53.356;-1.464;2022-10-17T00:49:22;5.13;;;4.07;;
29838;SDS011;18669;53.356;-1.464;2022-10-17T00:51:56;5.68;;;4.20;;
29838;SDS011;18669;53.356;-1.464;2022-10-17T00:54:27;4.82;;;3.88;;
29838;SDS011;18669;53.356;-1.464;2022-10-17T00:56:58;6.85;;;4.68;;
29838;SDS011;18669;53.356;-1.464;2022-10-17T00:59:25;7.20;;;4.15;;
29838;SDS011;18669;53.356;-1.464;2022-10-17T01:02:09;6.97;;;4.47;;
29838;SDS011;18669;53.356;-1.464;2022-10-17T01:04:40;9.20;;;4.57;;
29838;SDS011;18669;53.356;-1.464;2022-10-17T01:07:08;6.88;;;4.00;;
29838;SDS011;18669;53.356;-1.464;2022-10-17T01:09:36;6.55;;;4.15;;
29838;SDS011;18669;53.356;-1.464;2022-10-17T01:12:06;7.22;;;3.58;;
29838;SDS011;18669;53.356;-1.464;2022-10-17T01:42:09;8.13;;;2.88;;
29838;SDS011;18669;53.356;-1.464;2022-10-17T01:47:30;5.63;;;2.35;;
29838;SDS011;18669;53.356;-1.464;2022-10-17T01:49:59;4.80;;;1.95;;
29838;SDS011;18669;53.356;-1.464;2022-10-17T01:52:34;9.68;;;2.33;;
29838;SDS011;18669;53.356;-1.464;2022-10-17T01:55:12;8.55;;;2.15;;
29838;SDS011;18669;53.356;-1.464;2022-10-17T01:57:42;5.88;;;1.60;;
29838;SDS011;18669;53.356;-1.464;2022-10-17T02:00:15;3.08;;;1.70;;
29838;SDS011;18669;53.356;-1.464;2022-10-17T02:02:44;4.20;;;1.50;;
29838;SDS011;18669;53.356;-1.464;2022-10-17T02:05:15;3.63;;;1.42;;
29838;SDS011;18669;53.356;-1.464;2022-10-17T02:07:43;4.57;;;1.60;;
29838;SDS011;18669;53.356;-1.464;2022-10-17T02:10:12;6.80;;;1.92;;
29838;SDS011;18669;53.356;-1.464;2022-10-17T02:18:46;9.00;;;1.60;;
29838;SDS011;18669;53.356;-1.464;2022-10-17T02:21:02;5.80;;;1.85;;
29838;SDS011;18669;53.356;-1.464;2022-10-17T02:29:43;6.60;;;1.80;;
29838;SDS011;18669;53.356;-1.464;2022-10-17T02:32:15;5.72;;;1.48;;
29838;SDS011;18669;53.356;-1.464;2022-10-17T02:34:49;2.65;;;1.55;;
29838;SDS011;18669;53.356;-1.464;2022-10-17T02:37:21;5.03;;;1.45;;
29838;SDS011;18669;53.356;-1.464;2022-10-17T02:39:51;5.85;;;1.63;;
29838;SDS011;18669;53.356;-1.464;2022-10-17T02:42:21;5.53;;;1.55;;
29838;SDS011;18669;53.356;-1.464;2022-10-17T02:44:49;4.80;;;1.70;;
29838;SDS011;18669;53.356;-1.464;2022-10-17T02:47:20;6.85;;;1.70;;
29838;SDS011;18669;53.356;-1.464;2022-10-17T02:49:50;6.38;;;1.35;;
29838;SDS011;18669;53.356;-1.464;2022-10-17T02:52:21;5.43;;;1.25;;
29838;SDS011;18669;53.356;-1.464;2022-10-17T02:57:38;7.43;;;2.20;;
29838;SDS011;18669;53.356;-1.464;2022-10-17T03:00:16;4.25;;;1.50;;
29838;SDS011;18669;53.356;-1.464;2022-10-17T03:02:45;4.57;;;1.60;;
29838;SDS011;18669;53.356;-1.464;2022-10-17T03:05:18;8.65;;;1.30;;
29838;SDS011;18669;53.356;-1.464;2022-10-17T03:07:48;5.47;;;1.65;;
29838;SDS011;18669;53.356;-1.464;2022-10-17T03:10:14;4.15;;;1.30;;
29838;SDS011;18669;53.356;-1.464;2022-10-17T03:12:41;5.50;;;1.63;;
29838;SDS011;18669;53.356;-1.464;2022-10-17T03:15:08;3.65;;;1.27;;
29838;SDS011;18669;53.356;-1.464;2022-10-17T03:17:35;8.32;;;1.40;;
29838;SDS011;18669;53.356;-1.464;2022-10-17T03:20:02;5.05;;;1.60;;
29838;SDS011;18669;53.356;-1.464;2022-10-17T03:22:29;5.38;;;1.42;;
29838;SDS011;18669;53.356;-1.464;2022-10-17T03:24:55;6.95;;;1.40;;
29838;SDS011;18669;53.356;-1.464;2022-10-17T03:29:47;11.18;;;1.65;;
29838;SDS011;18669;53.356;-1.464;2022-10-17T03:32:13;6.03;;;1.40;;
29838;SDS011;18669;53.356;-1.464;2022-10-17T03:34:39;7.95;;;1.60;;
29838;SDS011;18669;53.356;-1.464;2022-10-17T03:37:05;7.80;;;1.20;;
29838;SDS011;18669;53.356;-1.464;2022-10-17T03:39:31;7.43;;;1.40;;
29838;SDS011;18669;53.356;-1.464;2022-10-17T03:41:57;6.43;;;1.38;;
29838;SDS011;18669;53.356;-1.464;2022-10-17T03:44:23;7.22;;;1.55;;
29838;SDS011;18669;53.356;-1.464;2022-10-17T03:46:50;11.05;;;2.03;;
29838;SDS011;18669;53.356;-1.464;2022-10-17T03:49:16;5.55;;;1.45;;
29838;SDS011;18669;53.356;-1.464;2022-10-17T03:51:42;5.72;;;1.50;;
29838;SDS011;18669;53.356;-1.464;2022-10-17T03:56:34;6.75;;;1.20;;
29838;SDS011;18669;53.356;-1.464;2022-10-17T03:59:01;5.30;;;1.20;;
29838;SDS011;18669;53.356;-1.464;2022-10-17T04:01:27;7.57;;;1.40;;
29838;SDS011;18669;53.356;-1.464;2022-10-17T04:03:55;5.00;;;1.30;;
29838;SDS011;18669;53.356;-1.464;2022-10-17T04:06:22;5.63;;;1.40;;
29838;SDS011;18669;53.356;-1.464;2022-10-17T04:08:49;10.38;;;1.40;;
29838;SDS011;18669;53.356;-1.464;2022-10-17T04:11:16;5.20;;;1.40;;
29838;SDS011;18669;53.356;-1.464;2022-10-17T04:13:44;7.18;;;1.60;;
29838;SDS011;18669;53.356;-1.464;2022-10-17T04:16:12;6.57;;;1.52;;
29838;SDS011;18669;53.356;-1.464;2022-10-17T04:18:40;6.07;;;1.23;;
29838;SDS011;18669;53.356;-1.464;2022-10-17T04:21:07;4.65;;;1.25;;
29838;SDS011;18669;53.356;-1.464;2022-10-17T04:23:33;5.00;;;1.42;;
29838;SDS011;18669;53.356;-1.464;2022-10-17T04:26:00;5.55;;;1.30;;
29838;SDS011;18669;53.356;-1.464;2022-10-17T04:28:28;7.00;;;1.55;;
29838;SDS011;18669;53.356;-1.464;2022-10-17T04:30:58;5.28;;;1.88;;
29838;SDS011;18669;53.356;-1.464;2022-10-17T04:33:25;7.32;;;1.88;;
29838;SDS011;18669;53.356;-1.464;2022-10-17T04:35:58;9.10;;;1.65;;
29838;SDS011;18669;53.356;-1.464;2022-10-17T04:38:26;4.57;;;1.27;;
29838;SDS011;18669;53.356;-1.464;2022-10-17T04:40:53;8.30;;;1.38;;
29838;SDS011;18669;53.356;-1.464;2022-10-17T04:43:19;7.15;;;1.50;;
29838;SDS011;18669;53.356;-1.464;2022-10-17T04:45:45;6.78;;;1.25;;
29838;SDS011;18669;53.356;-1.464;2022-10-17T04:48:12;6.53;;;1.63;;
29838;SDS011;18669;53.356;-1.464;2022-10-17T04:50:38;7.35;;;1.40;;
29838;SDS011;18669;53.356;-1.464;2022-10-17T04:55:30;8.57;;;1.40;;
29838;SDS011;18669;53.356;-1.464;2022-10-17T04:57:56;9.23;;;1.30;;
29838;SDS011;18669;53.356;-1.464;2022-10-17T05:02:48;7.80;;;1.63;;
29838;SDS011;18669;53.356;-1.464;2022-10-17T05:05:14;5.25;;;1.27;;
29838;SDS011;18669;53.356;-1.464;2022-10-17T05:10:06;5.78;;;1.30;;
29838;SDS011;18669;53.356;-1.464;2022-10-17T05:12:33;7.25;;;1.27;;
29838;SDS011;18669;53.356;-1.464;2022-10-17T05:14:59;7.65;;;1.25;;
29838;SDS011;18669;53.356;-1.464;2022-10-17T05:17:26;7.72;;;1.20;;
29838;SDS011;18669;53.356;-1.464;2022-10-17T05:22:18;6.32;;;1.33;;
29838;SDS011;18669;53.356;-1.464;2022-10-17T05:27:10;5.05;;;1.30;;
29838;SDS011;18669;53.356;-1.464;2022-10-17T05:29:36;10.82;;;1.45;;
29838;SDS011;18669;53.356;-1.464;2022-10-17T05:32:02;9.27;;;1.38;;
29838;SDS011;18669;53.356;-1.464;2022-10-17T05:34:28;8.57;;;1.45;;
29838;SDS011;18669;53.356;-1.464;2022-10-17T05:39:21;6.43;;;1.30;;
29838;SDS011;18669;53.356;-1.464;2022-10-17T05:41:48;6.90;;;1.75;;
29838;SDS011;18669;53.356;-1.464;2022-10-17T05:44:15;9.10;;;1.83;;
29838;SDS011;18669;53.356;-1.464;2022-10-17T05:46:43;6.03;;;1.50;;
29838;SDS011;18669;53.356;-1.464;2022-10-17T05:49:10;7.05;;;1.30;;
29838;SDS011;18669;53.356;-1.464;2022-10-17T05:51:39;6.80;;;1.30;;
29838;SDS011;18669;53.356;-1.464;2022-10-17T05:54:05;8.07;;;1.48;;
29838;SDS011;18669;53.356;-1.464;2022-10-17T05:56:32;7.60;;;1.23;;
29838;SDS011;18669;53.356;-1.464;2022-10-17T05:58:59;7.35;;;2.10;;
29838;SDS011;18669;53.356;-1.464;2022-10-17T06:01:26;12.07;;;2.20;;
29838;SDS011;18669;53.356;-1.464;2022-10-17T06:03:52;8.52;;;1.48;;
29838;SDS011;18669;53.356;-1.464;2022-10-17T06:06:18;7.03;;;1.27;;
29838;SDS011;18669;53.356;-1.464;2022-10-17T06:08:45;10.60;;;1.90;;
29838;SDS011;18669;53.356;-1.464;2022-10-17T06:11:11;8.95;;;2.20;;
29838;SDS011;18669;53.356;-1.464;2022-10-17T06:13:38;5.53;;;1.08;;
29838;SDS011;18669;53.356;-1.464;2022-10-17T06:16:05;7.72;;;1.30;;
29838;SDS011;18669;53.356;-1.464;2022-10-17T06:18:31;12.23;;;1.67;;
29838;SDS011;18669;53.356;-1.464;2022-10-17T06:21:01;8.25;;;1.33;;
29838;SDS011;18669;53.356;-1.464;2022-10-17T06:23:29;9.30;;;1.63;;
29838;SDS011;18669;53.356;-1.464;2022-10-17T06:26:02;7.65;;;1.30;;
29838;SDS011;18669;53.356;-1.464;2022-10-17T06:28:29;11.95;;;1.48;;
29838;SDS011;18669;53.356;-1.464;2022-10-17T06:30:55;12.70;;;1.40;;
29838;SDS011;18669;53.356;-1.464;2022-10-17T06:33:22;9.55;;;1.60;;
29838;SDS011;18669;53.356;-1.464;2022-10-17T06:35:55;12.07;;;1.73;;
29838;SDS011;18669;53.356;-1.464;2022-10-17T06:38:21;13.57;;;1.80;;
29838;SDS011;18669;53.356;-1.464;2022-10-17T06:40:48;10.77;;;1.73;;
29838;SDS011;18669;53.356;-1.464;2022-10-17T06:43:14;11.98;;;1.70;;
29838;SDS011;18669;53.356;-1.464;2022-10-17T06:48:06;9.63;;;1.77;;
29838;SDS011;18669;53.356;-1.464;2022-10-17T06:50:33;9.07;;;1.70;;
29838;SDS011;18669;53.356;-1.464;2022-10-17T06:53:00;11.15;;;2.13;;
29838;SDS011;18669;53.356;-1.464;2022-10-17T06:57:53;6.00;;;1.60;;
29838;SDS011;18669;53.356;-1.464;2022-10-17T07:00:20;10.70;;;1.80;;
29838;SDS011;18669;53.356;-1.464;2022-10-17T07:02:48;10.23;;;1.85;;
29838;SDS011;18669;53.356;-1.464;2022-10-17T07:07:40;11.33;;;1.70;;
29838;SDS011;18669;53.356;-1.464;2022-10-17T07:12:33;13.33;;;1.50;;
29838;SDS011;18669;53.356;-1.464;2022-10-17T07:15:00;9.27;;;1.48;;
29838;SDS011;18669;53.356;-1.464;2022-10-17T07:17:29;15.05;;;1.77;;
29838;SDS011;18669;53.356;-1.464;2022-10-17T07:19:56;13.65;;;1.55;;
29838;SDS011;18669;53.356;-1.464;2022-10-17T07:22:22;9.20;;;1.65;;
29838;SDS011;18669;53.356;-1.464;2022-10-17T07:24:48;11.70;;;1.70;;
29838;SDS011;18669;53.356;-1.464;2022-10-17T07:29:40;10.60;;;1.90;;
29838;SDS011;18669;53.356;-1.464;2022-10-17T07:34:34;7.45;;;1.52;;
29838;SDS011;18669;53.356;-1.464;2022-10-17T07:37:00;14.48;;;1.80;;
29838;SDS011;18669;53.356;-1.464;2022-10-17T07:39:27;9.40;;;1.60;;
29838;SDS011;18669;53.356;-1.464;2022-10-17T07:41:56;12.98;;;1.95;;
29838;SDS011;18669;53.356;-1.464;2022-10-17T07:44:23;10.40;;;2.28;;
29838;SDS011;18669;53.356;-1.464;2022-10-17T07:46:49;9.70;;;1.60;;
29838;SDS011;18669;53.356;-1.464;2022-10-17T07:51:41;9.18;;;1.60;;
29838;SDS011;18669;53.356;-1.464;2022-10-17T07:54:08;9.93;;;1.50;;
29838;SDS011;18669;53.356;-1.464;2022-10-17T07:56:34;13.90;;;2.05;;
29838;SDS011;18669;53.356;-1.464;2022-10-17T07:59:01;11.52;;;1.70;;
29838;SDS011;18669;53.356;-1.464;2022-10-17T08:01:28;7.82;;;1.50;;
29838;SDS011;18669;53.356;-1.464;2022-10-17T08:06:20;16.75;;;2.70;;
29838;SDS011;18669;53.356;-1.464;2022-10-17T08:08:46;10.32;;;1.95;;
29838;SDS011;18669;53.356;-1.464;2022-10-17T08:11:13;11.18;;;1.70;;
29838;SDS011;18669;53.356;-1.464;2022-10-17T08:13:40;8.05;;;2.08;;
29838;SDS011;18669;53.356;-1.464;2022-10-17T08:16:09;11.30;;;1.52;;
29838;SDS011;18669;53.356;-1.464;2022-10-17T08:18:37;19.02;;;1.88;;
29838;SDS011;18669;53.356;-1.464;2022-10-17T08:21:04;16.05;;;1.77;;
29838;SDS011;18669;53.356;-1.464;2022-10-17T08:23:33;12.13;;;1.85;;
29838;SDS011;18669;53.356;-1.464;2022-10-17T08:26:00;14.43;;;1.90;;
29838;SDS011;18669;53.356;-1.464;2022-10-17T08:28:27;7.05;;;1.30;;
29838;SDS011;18669;53.356;-1.464;2022-10-17T08:31:01;13.57;;;2.40;;
29838;SDS011;18669;53.356;-1.464;2022-10-17T08:33:35;5.68;;;1.58;;
29838;SDS011;18669;53.356;-1.464;2022-10-17T08:36:02;9.80;;;2.05;;
29838;SDS011;18669;53.356;-1.464;2022-10-17T08:38:30;8.00;;;1.73;;
29838;SDS011;18669;53.356;-1.464;2022-10-17T08:41:02;12.68;;;1.80;;
29838;SDS011;18669;53.356;-1.464;2022-10-17T08:46:09;17.10;;;3.08;;
29838;SDS011;18669;53.356;-1.464;2022-10-17T08:48:40;11.10;;;1.80;;
29838;SDS011;18669;53.356;-1.464;2022-10-17T08:51:13;15.93;;;2.38;;
29838;SDS011;18669;53.356;-1.464;2022-10-17T08:53:50;10.48;;;1.67;;
29838;SDS011;18669;53.356;-1.464;2022-10-17T08:56:23;12.07;;;1.85;;
29838;SDS011;18669;53.356;-1.464;2022-10-17T08:58:52;11.02;;;2.05;;
29838;SDS011;18669;53.356;-1.464;2022-10-17T09:01:32;10.80;;;1.70;;
29838;SDS011;18669;53.356;-1.464;2022-10-17T09:04:13;11.38;;;1.88;;
29838;SDS011;18669;53.356;-1.464;2022-10-17T09:10:20;6.95;;;1.70;;
29838;SDS011;18669;53.356;-1.464;2022-10-17T09:18:36;15.10;;;2.05;;
29838;SDS011;18669;53.356;-1.464;2022-10-17T09:21:22;14.15;;;2.05;;
29838;SDS011;18669;53.356;-1.464;2022-10-17T09:23:58;12.70;;;1.75;;
29838;SDS011;18669;53.356;-1.464;2022-10-17T09:26:27;10.07;;;1.92;;
29838;SDS011;18669;53.356;-1.464;2022-10-17T09:28:55;14.52;;;2.10;;
29838;SDS011;18669;53.356;-1.464;2022-10-17T09:31:40;14.60;;;2.03;;
29838;SDS011;18669;53.356;-1.464;2022-10-17T09:34:10;12.02;;;2.10;;
29838;SDS011;18669;53.356;-1.464;2022-10-17T09:36:39;12.07;;;1.70;;
29838;SDS011;18669;53.356;-1.464;2022-10-17T09:39:12;12.73;;;1.83;;
29838;SDS011;18669;53.356;-1.464;2022-10-17T09:41:47;10.45;;;1.63;;
29838;SDS011;18669;53.356;-1.464;2022-10-17T09:44:25;12.18;;;1.73;;
29838;SDS011;18669;53.356;-1.464;2022-10-17T09:47:11;9.57;;;2.10;;
29838;SDS011;18669;53.356;-1.464;2022-10-17T09:49:47;11.90;;;1.92;;
29838;SDS011;18669;53.356;-1.464;2022-10-17T09:55:14;9.73;;;1.60;;
29838;SDS011;18669;53.356;-1.464;2022-10-17T09:58:00;16.10;;;1.80;;
29838;SDS011;18669;53.356;-1.464;2022-10-17T10:00:30;8.27;;;1.88;;
29838;SDS011;18669;53.356;-1.464;2022-10-17T10:03:13;44.05;;;9.30;;
29838;SDS011;18669;53.356;-1.464;2022-10-17T10:05:41;12.90;;;2.17;;
29838;SDS011;18669;53.356;-1.464;2022-10-17T10:08:13;14.02;;;2.03;;
29838;SDS011;18669;53.356;-1.464;2022-10-17T10:10:41;12.63;;;1.90;;
29838;SDS011;18669;53.356;-1.464;2022-10-17T10:15:38;13.45;;;2.00;;
29838;SDS011;18669;53.356;-1.464;2022-10-17T10:21:05;10.98;;;1.55;;
29838;SDS011;18669;53.356;-1.464;2022-10-17T10:23:32;10.07;;;1.52;;
29838;SDS011;18669;53.356;-1.464;2022-10-17T10:26:21;10.77;;;2.17;;
29838;SDS011;18669;53.356;-1.464;2022-10-17T10:31:29;8.35;;;2.10;;
29838;SDS011;18669;53.356;-1.464;2022-10-17T10:33:59;9.65;;;1.67;;
29838;SDS011;18669;53.356;-1.464;2022-10-17T10:36:44;13.70;;;1.70;;
29838;SDS011;18669;53.356;-1.464;2022-10-17T10:39:31;14.63;;;4.13;;
29838;SDS011;18669;53.356;-1.464;2022-10-17T10:41:58;11.35;;;1.60;;
29838;SDS011;18669;53.356;-1.464;2022-10-17T10:44:30;10.75;;;1.60;;
29838;SDS011;18669;53.356;-1.464;2022-10-17T10:49:41;10.63;;;1.55;;
29838;SDS011;18669;53.356;-1.464;2022-10-17T10:52:09;11.15;;;2.33;;
29838;SDS011;18669;53.356;-1.464;2022-10-17T10:54:42;12.57;;;2.30;;
29838;SDS011;18669;53.356;-1.464;2022-10-17T10:57:16;7.63;;;1.67;;
29838;SDS011;18669;53.356;-1.464;2022-10-17T10:59:50;11.32;;;1.73;;
29838;SDS011;18669;53.356;-1.464;2022-10-17T11:08:13;7.47;;;1.65;;
29838;SDS011;18669;53.356;-1.464;2022-10-17T11:13:49;6.03;;;1.38;;
29838;SDS011;18669;53.356;-1.464;2022-10-17T11:19:36;10.15;;;2.80;;
29838;SDS011;18669;53.356;-1.464;2022-10-17T11:27:27;11.20;;;2.17;;
29838;SDS011;18669;53.356;-1.464;2022-10-17T11:29:55;14.95;;;1.85;;
29838;SDS011;18669;53.356;-1.464;2022-10-17T11:32:27;8.38;;;1.80;;
29838;SDS011;18669;53.356;-1.464;2022-10-17T11:37:45;10.95;;;1.80;;
29838;SDS011;18669;53.356;-1.464;2022-10-17T11:40:20;11.60;;;1.65;;
29838;SDS011;18669;53.356;-1.464;2022-10-17T11:42:55;9.25;;;1.52;;
29838;SDS011;18669;53.356;-1.464;2022-10-17T11:45:22;7.85;;;1.98;;
29838;SDS011;18669;53.356;-1.464;2022-10-17T11:47:53;6.40;;;2.00;;
29838;SDS011;18669;53.356;-1.464;2022-10-17T11:50:33;13.77;;;2.58;;
29838;SDS011;18669;53.356;-1.464;2022-10-17T11:53:04;8.32;;;1.35;;
29838;SDS011;18669;53.356;-1.464;2022-10-17T11:55:35;12.38;;;1.77;;
29838;SDS011;18669;53.356;-1.464;2022-10-17T12:09:25;18.40;;;3.10;;
29838;SDS011;18669;53.356;-1.464;2022-10-17T12:12:04;6.70;;;0.95;;
29838;SDS011;18669;53.356;-1.464;2022-10-17T12:14:43;11.20;;;2.85;;
29838;SDS011;18669;53.356;-1.464;2022-10-17T12:20:23;9.70;;;1.50;;
29838;SDS011;18669;53.356;-1.464;2022-10-17T12:22:57;8.90;;;2.13;;
29838;SDS011;18669;53.356;-1.464;2022-10-17T12:25:28;9.77;;;1.60;;
29838;SDS011;18669;53.356;-1.464;2022-10-17T12:28:10;15.70;;;1.67;;
29838;SDS011;18669;53.356;-1.464;2022-10-17T12:31:00;4.30;;;1.42;;
29838;SDS011;18669;53.356;-1.464;2022-10-17T12:33:34;10.52;;;1.65;;
29838;SDS011;18669;53.356;-1.464;2022-10-17T12:41:14;12.30;;;2.30;;
29838;SDS011;18669;53.356;-1.464;2022-10-17T12:49:03;11.60;;;1.45;;
29838;SDS011;18669;53.356;-1.464;2022-10-17T12:55:27;5.40;;;1.25;;
29838;SDS011;18669;53.356;-1.464;2022-10-17T12:57:48;8.05;;;1.50;;
29838;SDS011;18669;53.356;-1.464;2022-10-17T13:02:47;6.00;;;1.33;;
29838;SDS011;18669;53.356;-1.464;2022-10-17T13:05:27;5.93;;;1.20;;
29838;SDS011;18669;53.356;-1.464;2022-10-17T13:07:56;9.65;;;1.70;;
29838;SDS011;18669;53.356;-1.464;2022-10-17T13:10:27;9.18;;;1.42;;
29838;SDS011;18669;53.356;-1.464;2022-10-17T13:15:58;8.07;;;1.25;;
29838;SDS011;18669;53.356;-1.464;2022-10-17T13:18:25;11.73;;;1.50;;
29838;SDS011;18669;53.356;-1.464;2022-10-17T13:20:53;13.68;;;2.00;;
29838;SDS011;18669;53.356;-1.464;2022-10-17T13:23:25;8.75;;;1.60;;
29838;SDS011;18669;53.356;-1.464;2022-10-17T13:26:02;5.22;;;1.15;;
29838;SDS011;18669;53.356;-1.464;2022-10-17T13:28:35;11.27;;;1.70;;
29838;SDS011;18669;53.356;-1.464;2022-10-17T13:31:02;6.70;;;1.45;;
29838;SDS011;18669;53.356;-1.464;2022-10-17T13:33:32;15.20;;;2.08;;
29838;SDS011;18669;53.356;-1.464;2022-10-17T13:36:01;14.07;;;2.10;;
29838;SDS011;18669;53.356;-1.464;2022-10-17T13:38:31;13.60;;;1.52;;
29838;SDS011;18669;53.356;-1.464;2022-10-17T13:41:00;5.78;;;1.42;;
29838;SDS011;18669;53.356;-1.464;2022-10-17T13:43:27;10.00;;;1.52;;
29838;SDS011;18669;53.356;-1.464;2022-10-17T13:45:56;12.10;;;1.90;;
29838;SDS011;18669;53.356;-1.464;2022-10-17T13:48:29;7.68;;;1.58;;
29838;SDS011;18669;53.356;-1.464;2022-10-17T13:50:59;8.82;;;1.77;;
29838;SDS011;18669;53.356;-1.464;2022-10-17T13:56:03;8.75;;;1.40;;
29838;SDS011;18669;53.356;-1.464;2022-10-17T13:58:40;11.65;;;1.88;;
29838;SDS011;18669;53.356;-1.464;2022-10-17T14:01:11;8.05;;;1.52;;
29838;SDS011;18669;53.356;-1.464;2022-10-17T14:03:42;9.73;;;1.92;;
29838;SDS011;18669;53.356;-1.464;2022-10-17T14:06:25;4.85;;;1.20;;
29838;SDS011;18669;53.356;-1.464;2022-10-17T14:08:53;17.88;;;2.15;;
29838;SDS011;18669;53.356;-1.464;2022-10-17T14:11:39;10.32;;;1.40;;
29838;SDS011;18669;53.356;-1.464;2022-10-17T14:14:18;5.97;;;1.60;;
29838;SDS011;18669;53.356;-1.464;2022-10-17T14:16:48;6.57;;;1.30;;
29838;SDS011;18669;53.356;-1.464;2022-10-17T14:19:25;9.43;;;1.63;;
29838;SDS011;18669;53.356;-1.464;2022-10-17T14:22:14;5.53;;;1.50;;
29838;SDS011;18669;53.356;-1.464;2022-10-17T14:24:41;9.85;;;1.20;;
29838;SDS011;18669;53.356;-1.464;2022-10-17T14:30:00;6.85;;;0.88;;
29838;SDS011;18669;53.356;-1.464;2022-10-17T14:32:29;11.50;;;2.08;;
29838;SDS011;18669;53.356;-1.464;2022-10-17T14:35:00;11.18;;;1.30;;
29838;SDS011;18669;53.356;-1.464;2022-10-17T14:37:33;5.85;;;1.30;;
29838;SDS011;18669;53.356;-1.464;2022-10-17T14:40:04;5.60;;;1.27;;
29838;SDS011;18669;53.356;-1.464;2022-10-17T14:42:31;8.63;;;2.10;;
29838;SDS011;18669;53.356;-1.464;2022-10-17T14:45:05;9.55;;;1.58;;
29838;SDS011;18669;53.356;-1.464;2022-10-17T14:47:34;6.72;;;2.25;;
29838;SDS011;18669;53.356;-1.464;2022-10-17T14:50:22;7.43;;;1.42;;
29838;SDS011;18669;53.356;-1.464;2022-10-17T14:55:55;12.40;;;1.98;;
29838;SDS011;18669;53.356;-1.464;2022-10-17T14:58:24;6.28;;;1.50;;
29838;SDS011;18669;53.356;-1.464;2022-10-17T15:00:56;6.07;;;1.42;;
29838;SDS011;18669;53.356;-1.464;2022-10-17T15:03:23;9.65;;;1.23;;
29838;SDS011;18669;53.356;-1.464;2022-10-17T15:05:50;9.05;;;1.67;;
29838;SDS011;18669;53.356;-1.464;2022-10-17T15:08:20;9.95;;;1.70;;
29838;SDS011;18669;53.356;-1.464;2022-10-17T15:10:48;6.40;;;1.35;;
29838;SDS011;18669;53.356;-1.464;2022-10-17T15:13:15;7.93;;;1.48;;
29838;SDS011;18669;53.356;-1.464;2022-10-17T15:15:42;8.85;;;1.52;;
29838;SDS011;18669;53.356;-1.464;2022-10-17T15:18:11;6.97;;;1.40;;
29838;SDS011;18669;53.356;-1.464;2022-10-17T15:20:39;6.53;;;1.52;;
29838;SDS011;18669;53.356;-1.464;2022-10-17T15:23:05;7.57;;;1.35;;
29838;SDS011;18669;53.356;-1.464;2022-10-17T15:25:31;10.23;;;1.70;;
29838;SDS011;18669;53.356;-1.464;2022-10-17T15:27:59;11.55;;;2.67;;
29838;SDS011;18669;53.356;-1.464;2022-10-17T15:30:27;10.13;;;1.70;;
29838;SDS011;18669;53.356;-1.464;2022-10-17T15:32:56;11.70;;;1.88;;
29838;SDS011;18669;53.356;-1.464;2022-10-17T15:35:24;9.77;;;2.30;;
29838;SDS011;18669;53.356;-1.464;2022-10-17T15:37:51;8.32;;;1.77;;
29838;SDS011;18669;53.356;-1.464;2022-10-17T15:40:18;13.35;;;1.50;;
29838;SDS011;18669;53.356;-1.464;2022-10-17T15:42:49;5.93;;;1.40;;
29838;SDS011;18669;53.356;-1.464;2022-10-17T15:45:17;12.35;;;1.58;;
29838;SDS011;18669;53.356;-1.464;2022-10-17T15:47:50;6.80;;;1.70;;
29838;SDS011;18669;53.356;-1.464;2022-10-17T15:50:19;18.63;;;10.27;;
29838;SDS011;18669;53.356;-1.464;2022-10-17T15:52:47;26.65;;;17.45;;
29838;SDS011;18669;53.356;-1.464;2022-10-17T15:55:15;18.35;;;9.38;;
29838;SDS011;18669;53.356;-1.464;2022-10-17T15:57:43;11.38;;;5.93;;
29838;SDS011;18669;53.356;-1.464;2022-10-17T16:00:18;9.55;;;3.95;;
29838;SDS011;18669;53.356;-1.464;2022-10-17T16:02:46;10.65;;;4.03;;
29838;SDS011;18669;53.356;-1.464;2022-10-17T16:05:17;6.80;;;2.33;;
29838;SDS011;18669;53.356;-1.464;2022-10-17T16:12:44;8.25;;;2.83;;
29838;SDS011;18669;53.356;-1.464;2022-10-17T16:15:20;14.38;;;3.65;;
29838;SDS011;18669;53.356;-1.464;2022-10-17T16:17:48;7.53;;;2.35;;
29838;SDS011;18669;53.356;-1.464;2022-10-17T16:20:14;13.52;;;4.10;;
29838;SDS011;18669;53.356;-1.464;2022-10-17T16:22:42;6.97;;;2.58;;
29838;SDS011;18669;53.356;-1.464;2022-10-17T16:25:20;7.18;;;1.70;;
29838;SDS011;18669;53.356;-1.464;2022-10-17T16:27:49;10.75;;;2.00;;
29838;SDS011;18669;53.356;-1.464;2022-10-17T16:30:18;8.40;;;1.77;;
29838;SDS011;18669;53.356;-1.464;2022-10-17T16:32:45;7.47;;;1.50;;
29838;SDS011;18669;53.356;-1.464;2022-10-17T16:35:15;4.88;;;1.90;;
29838;SDS011;18669;53.356;-1.464;2022-10-17T16:37:46;7.35;;;1.40;;
29838;SDS011;18669;53.356;-1.464;2022-10-17T16:40:14;8.98;;;1.30;;
29838;SDS011;18669;53.356;-1.464;2022-10-17T16:42:41;6.60;;;1.30;;
29838;SDS011;18669;53.356;-1.464;2022-10-17T16:45:07;7.22;;;1.55;;
29838;SDS011;18669;53.356;-1.464;2022-10-17T16:47:33;6.40;;;1.40;;
29838;SDS011;18669;53.356;-1.464;2022-10-17T16:50:00;6.97;;;1.33;;
29838;SDS011;18669;53.356;-1.464;2022-10-17T16:52:26;5.20;;;1.52;;
29838;SDS011;18669;53.356;-1.464;2022-10-17T16:54:53;9.38;;;2.17;;
29838;SDS011;18669;53.356;-1.464;2022-10-17T16:57:19;7.43;;;1.70;;
29838;SDS011;18669;53.356;-1.464;2022-10-17T16:59:45;7.57;;;1.83;;
29838;SDS011;18669;53.356;-1.464;2022-10-17T17:02:11;11.40;;;2.05;;
29838;SDS011;18669;53.356;-1.464;2022-10-17T17:04:38;12.85;;;2.63;;
29838;SDS011;18669;53.356;-1.464;2022-10-17T17:07:05;14.98;;;7.93;;
29838;SDS011;18669;53.356;-1.464;2022-10-17T17:09:32;15.52;;;5.07;;
29838;SDS011;18669;53.356;-1.464;2022-10-17T17:11:58;8.73;;;4.28;;
29838;SDS011;18669;53.356;-1.464;2022-10-17T17:14:25;8.20;;;3.00;;
29838;SDS011;18669;53.356;-1.464;2022-10-17T17:16:51;9.23;;;2.42;;
29838;SDS011;18669;53.356;-1.464;2022-10-17T17:19:18;12.15;;;2.00;;
29838;SDS011;18669;53.356;-1.464;2022-10-17T17:21:45;16.48;;;2.67;;
29838;SDS011;18669;53.356;-1.464;2022-10-17T17:24:17;8.23;;;2.40;;
29838;SDS011;18669;53.356;-1.464;2022-10-17T17:26:51;7.90;;;2.70;;
29838;SDS011;18669;53.356;-1.464;2022-10-17T17:29:19;8.77;;;2.58;;
29838;SDS011;18669;53.356;-1.464;2022-10-17T17:31:46;10.63;;;2.83;;
29838;SDS011;18669;53.356;-1.464;2022-10-17T17:34:14;8.88;;;2.97;;
29838;SDS011;18669;53.356;-1.464;2022-10-17T17:36:40;6.63;;;1.70;;
29838;SDS011;18669;53.356;-1.464;2022-10-17T17:39:10;5.43;;;1.77;;
29838;SDS011;18669;53.356;-1.464;2022-10-17T17:41:38;11.00;;;1.98;;
29838;SDS011;18669;53.356;-1.464;2022-10-17T17:44:07;5.20;;;1.90;;
29838;SDS011;18669;53.356;-1.464;2022-10-17T17:46:35;8.40;;;1.92;;
29838;SDS011;18669;53.356;-1.464;2022-10-17T17:49:01;7.05;;;1.85;;
29838;SDS011;18669;53.356;-1.464;2022-10-17T17:51:27;8.95;;;2.83;;